sensor_id;sensor_type;location;lat;lon;timestamp;pressure;altitude;pressure_sealevel;temperature;humidity
6425;BME280;12193;42.642;23.384;2023-04-05T00:01:55;93913.69;;;0.39;100.00
6425;BME280;12193;42.642;23.384;2023-04-05T00:04:26;93898.06;;;0.50;100.00
6425;BME280;12193;42.642;23.384;2023-04-05T03:08:30;93923.91;;;0.97;100.00
6425;BME280;12193;42.642;23.384;2023-04-05T03:11:02;93930.56;;;0.82;100.00
6425;BME280;12193;42.642;23.384;2023-04-05T03:13:31;93920.22;;;0.91;100.00
6425;BME280;12193;42.642;23.384;2023-04-05T03:16:01;93931.25;;;0.92;100.00
6425;BME280;12193;42.642;23.384;2023-04-05T03:18:31;93928.06;;;0.98;100.00
6425;BME280;12193;42.642;23.384;2023-04-05T03:21:00;93931.56;;;0.97;100.00
6425;BME280;12193;42.642;23.384;2023-04-05T03:23:32;93930.31;;;1.01;100.00
6425;BME280;12193;42.642;23.384;2023-04-05T03:26:02;93928.53;;;1.01;100.00
6425;BME280;12193;42.642;23.384;2023-04-05T03:28:33;93925.16;;;0.93;100.00
6425;BME280;12193;42.642;23.384;2023-04-05T03:31:02;93913.16;;;0.93;100.00
6425;BME280;12193;42.642;23.384;2023-04-05T03:33:31;93922.94;;;0.98;100.00
6425;BME280;12193;42.642;23.384;2023-04-05T03:36:01;93926.59;;;0.95;100.00
6425;BME280;12193;42.642;23.384;2023-04-05T03:38:33;93931.41;;;0.90;100.00
6425;BME280;12193;42.642;23.384;2023-04-05T03:41:02;93932.03;;;0.92;100.00
6425;BME280;12193;42.642;23.384;2023-04-05T03:43:32;93925.78;;;0.87;100.00
6425;BME280;12193;42.642;23.384;2023-04-05T03:46:01;93931.38;;;0.82;100.00
6425;BME280;12193;42.642;23.384;2023-04-05T03:48:31;93942.09;;;0.86;100.00
6425;BME280;12193;42.642;23.384;2023-04-05T03:51:00;93940.34;;;0.94;100.00
6425;BME280;12193;42.642;23.384;2023-04-05T03:53:32;93942.41;;;0.91;100.00
6425;BME280;12193;42.642;23.384;2023-04-05T03:56:01;93943.53;;;0.96;100.00
6425;BME280;12193;42.642;23.384;2023-04-05T03:58:31;93951.09;;;0.98;100.00
6425;BME280;12193;42.642;23.384;2023-04-05T04:01:00;93955.25;;;0.99;100.00
6425;BME280;12193;42.642;23.384;2023-04-05T04:03:30;93950.88;;;0.83;100.00
6425;BME280;12193;42.642;23.384;2023-04-05T04:05:59;93953.09;;;0.70;100.00
6425;BME280;12193;42.642;23.384;2023-04-05T04:08:29;93953.09;;;0.70;100.00
6425;BME280;12193;42.642;23.384;2023-04-05T04:11:01;93952.19;;;0.87;100.00
6425;BME280;12193;42.642;23.384;2023-04-05T04:13:31;93948.59;;;0.64;100.00
6425;BME280;12193;42.642;23.384;2023-04-05T04:16:00;93944.66;;;0.78;100.00
6425;BME280;12193;42.642;23.384;2023-04-05T04:18:30;93955.97;;;0.67;100.00
6425;BME280;12193;42.642;23.384;2023-04-05T04:21:01;93946.84;;;0.73;100.00
6425;BME280;12193;42.642;23.384;2023-04-05T04:23:32;93946.69;;;0.66;100.00
6425;BME280;12193;42.642;23.384;2023-04-05T04:26:06;93949.44;;;0.81;100.00
6425;BME280;12193;42.642;23.384;2023-04-05T04:28:36;93953.09;;;0.78;100.00
6425;BME280;12193;42.642;23.384;2023-04-05T04:31:11;93955.53;;;0.88;100.00
6425;BME280;12193;42.642;23.384;2023-04-05T04:33:40;93955.69;;;0.86;100.00
6425;BME280;12193;42.642;23.384;2023-04-05T04:36:10;93961.16;;;0.91;100.00
6425;BME280;12193;42.642;23.384;2023-04-05T04:38:40;93962.25;;;0.89;100.00
6425;BME280;12193;42.642;23.384;2023-04-05T04:41:14;93964.81;;;0.97;100.00
6425;BME280;12193;42.642;23.384;2023-04-05T04:43:45;93963.22;;;0.96;100.00
6425;BME280;12193;42.642;23.384;2023-04-05T04:46:14;93963.22;;;1.03;100.00
6425;BME280;12193;42.642;23.384;2023-04-05T04:48:45;93965.19;;;1.17;100.00
6425;BME280;12193;42.642;23.384;2023-04-05T04:51:14;93962.63;;;1.25;100.00
6425;BME280;12193;42.642;23.384;2023-04-05T04:53:44;93965.19;;;1.25;100.00
6425;BME280;12193;42.642;23.384;2023-04-05T04:56:16;93967.75;;;1.25;100.00
6425;BME280;12193;42.642;23.384;2023-04-05T04:58:46;93967.28;;;1.30;100.00
6425;BME280;12193;42.642;23.384;2023-04-05T05:01:15;93967.88;;;1.08;100.00
6425;BME280;12193;42.642;23.384;2023-04-05T05:03:44;93970.13;;;1.19;100.00
6425;BME280;12193;42.642;23.384;2023-04-05T05:06:16;93977.84;;;1.43;100.00
6425;BME280;12193;42.642;23.384;2023-04-05T05:08:47;93976.41;;;1.32;100.00
6425;BME280;12193;42.642;23.384;2023-04-05T05:11:19;93975.09;;;1.20;100.00
6425;BME280;12193;42.642;23.384;2023-04-05T05:13:48;93970.31;;;1.17;100.00
6425;BME280;12193;42.642;23.384;2023-04-05T05:16:17;93978.63;;;1.19;100.00
6425;BME280;12193;42.642;23.384;2023-04-05T05:18:49;93972.03;;;1.17;100.00
6425;BME280;12193;42.642;23.384;2023-04-05T05:21:19;93984.38;;;1.21;100.00
6425;BME280;12193;42.642;23.384;2023-04-05T05:23:48;93988.72;;;1.29;100.00
6425;BME280;12193;42.642;23.384;2023-04-05T05:26:20;93977.81;;;1.19;100.00
6425;BME280;12193;42.642;23.384;2023-04-05T05:28:49;93989.19;;;1.32;100.00
6425;BME280;12193;42.642;23.384;2023-04-05T05:31:18;93991.44;;;1.35;100.00
6425;BME280;12193;42.642;23.384;2023-04-05T05:33:48;93980.06;;;1.38;100.00
6425;BME280;12193;42.642;23.384;2023-04-05T05:36:17;93987.78;;;1.46;100.00
6425;BME280;12193;42.642;23.384;2023-04-05T05:38:48;93988.56;;;1.46;100.00
6425;BME280;12193;42.642;23.384;2023-04-05T05:41:21;93983.28;;;1.56;100.00
6425;BME280;12193;42.642;23.384;2023-04-05T05:43:51;93978.50;;;1.53;100.00
6425;BME280;12193;42.642;23.384;2023-04-05T05:46:20;93978.16;;;1.56;100.00
6425;BME280;12193;42.642;23.384;2023-04-05T05:48:50;93980.91;;;1.62;100.00
6425;BME280;12193;42.642;23.384;2023-04-05T05:51:19;93989.69;;;1.84;100.00
6425;BME280;12193;42.642;23.384;2023-04-05T05:53:49;93979.44;;;1.92;100.00
6425;BME280;12193;42.642;23.384;2023-04-05T05:56:21;93976.34;;;2.12;100.00
6425;BME280;12193;42.642;23.384;2023-04-05T05:58:50;93974.91;;;2.25;100.00
6425;BME280;12193;42.642;23.384;2023-04-05T06:01:19;93975.41;;;2.21;100.00
6425;BME280;12193;42.642;23.384;2023-04-05T06:03:53;93980.81;;;2.34;100.00
6425;BME280;12193;42.642;23.384;2023-04-05T06:06:22;93978.06;;;2.35;100.00
6425;BME280;12193;42.642;23.384;2023-04-05T06:08:52;93982.84;;;2.46;100.00
6425;BME280;12193;42.642;23.384;2023-04-05T06:11:24;93987.47;;;2.51;100.00
6425;BME280;12193;42.642;23.384;2023-04-05T06:13:54;93989.53;;;2.63;100.00
6425;BME280;12193;42.642;23.384;2023-04-05T06:16:23;93987.38;;;2.83;100.00
6425;BME280;12193;42.642;23.384;2023-04-05T06:18:52;94000.53;;;2.80;100.00
6425;BME280;12193;42.642;23.384;2023-04-05T06:21:22;93995.19;;;2.89;100.00
6425;BME280;12193;42.642;23.384;2023-04-05T06:23:51;93997.16;;;3.09;100.00
6425;BME280;12193;42.642;23.384;2023-04-05T06:26:24;94002.16;;;3.11;100.00
6425;BME280;12193;42.642;23.384;2023-04-05T06:28:55;93998.75;;;3.18;100.00
6425;BME280;12193;42.642;23.384;2023-04-05T06:31:30;93991.69;;;3.43;100.00
6425;BME280;12193;42.642;23.384;2023-04-05T06:34:00;94001.88;;;3.28;100.00
6425;BME280;12193;42.642;23.384;2023-04-05T06:36:29;93999.72;;;3.40;100.00
6425;BME280;12193;42.642;23.384;2023-04-05T06:38:59;94006.69;;;3.31;100.00
6425;BME280;12193;42.642;23.384;2023-04-05T06:41:31;94014.91;;;3.49;99.54
6425;BME280;12193;42.642;23.384;2023-04-05T06:44:00;94010.28;;;3.45;99.89
6425;BME280;12193;42.642;23.384;2023-04-05T06:46:30;94010.06;;;3.32;100.00
6425;BME280;12193;42.642;23.384;2023-04-05T06:48:59;94008.69;;;3.21;99.77
6425;BME280;12193;42.642;23.384;2023-04-05T06:51:28;94023.66;;;3.10;99.74
6425;BME280;12193;42.642;23.384;2023-04-05T06:53:58;94013.63;;;3.23;100.00
6425;BME280;12193;42.642;23.384;2023-04-05T06:56:27;94016.69;;;3.49;99.93
6425;BME280;12193;42.642;23.384;2023-04-05T06:59:00;94019.38;;;3.55;98.56
6425;BME280;12193;42.642;23.384;2023-04-05T07:01:29;94021.44;;;3.60;97.00
6425;BME280;12193;42.642;23.384;2023-04-05T07:03:59;94042.16;;;3.58;97.03
6425;BME280;12193;42.642;23.384;2023-04-05T07:06:28;94037.03;;;3.58;95.78
6425;BME280;12193;42.642;23.384;2023-04-05T07:08:58;94038.38;;;3.91;95.58
6425;BME280;12193;42.642;23.384;2023-04-05T07:11:29;94042.56;;;3.92;94.22
6425;BME280;12193;42.642;23.384;2023-04-05T07:14:01;94041.59;;;3.93;93.73
6425;BME280;12193;42.642;23.384;2023-04-05T07:16:30;94048.19;;;4.10;91.92
6425;BME280;12193;42.642;23.384;2023-04-05T07:19:00;94043.78;;;4.04;92.21
6425;BME280;12193;42.642;23.384;2023-04-05T07:21:31;94052.78;;;4.00;93.26
6425;BME280;12193;42.642;23.384;2023-04-05T07:24:00;94055.41;;;3.92;93.50
6425;BME280;12193;42.642;23.384;2023-04-05T07:26:30;94052.56;;;3.65;93.17
6425;BME280;12193;42.642;23.384;2023-04-05T07:29:03;94046.84;;;3.55;94.64
6425;BME280;12193;42.642;23.384;2023-04-05T07:31:33;94040.25;;;3.52;94.42
6425;BME280;12193;42.642;23.384;2023-04-05T07:34:03;94039.16;;;3.55;95.22
6425;BME280;12193;42.642;23.384;2023-04-05T07:36:32;94053.53;;;3.33;94.72
6425;BME280;12193;42.642;23.384;2023-04-05T07:39:02;94056.56;;;3.37;95.51
6425;BME280;12193;42.642;23.384;2023-04-05T07:41:31;94060.91;;;3.36;95.92
6425;BME280;12193;42.642;23.384;2023-04-05T07:44:05;94058.72;;;3.25;95.82
6425;BME280;12193;42.642;23.384;2023-04-05T07:46:34;94064.09;;;3.00;95.09
6425;BME280;12193;42.642;23.384;2023-04-05T07:49:04;94067.00;;;2.97;95.29
6425;BME280;12193;42.642;23.384;2023-04-05T07:51:33;94079.75;;;2.83;96.23
6425;BME280;12193;42.642;23.384;2023-04-05T07:54:03;94068.59;;;3.06;97.27
6425;BME280;12193;42.642;23.384;2023-04-05T07:56:35;94064.41;;;3.05;96.35
6425;BME280;12193;42.642;23.384;2023-04-05T07:59:07;94067.22;;;3.26;95.92
6425;BME280;12193;42.642;23.384;2023-04-05T08:01:36;94074.50;;;3.45;95.46
6425;BME280;12193;42.642;23.384;2023-04-05T08:04:06;94075.47;;;3.44;95.05
6425;BME280;12193;42.642;23.384;2023-04-05T08:06:35;94076.78;;;3.40;94.55
6425;BME280;12193;42.642;23.384;2023-04-05T08:09:04;94071.91;;;3.53;94.28
6425;BME280;12193;42.642;23.384;2023-04-05T08:11:34;94077.19;;;3.51;94.98
6425;BME280;12193;42.642;23.384;2023-04-05T08:14:03;94086.34;;;3.54;94.24
6425;BME280;12193;42.642;23.384;2023-04-05T08:16:36;94083.41;;;3.57;93.63
6425;BME280;12193;42.642;23.384;2023-04-05T08:19:05;94085.28;;;3.40;93.02
6425;BME280;12193;42.642;23.384;2023-04-05T08:21:34;94093.13;;;3.47;93.02
6425;BME280;12193;42.642;23.384;2023-04-05T08:24:04;94085.81;;;3.28;92.35
6425;BME280;12193;42.642;23.384;2023-04-05T08:26:33;94087.38;;;3.37;93.40
6425;BME280;12193;42.642;23.384;2023-04-05T08:29:03;94086.47;;;3.30;94.14
6425;BME280;12193;42.642;23.384;2023-04-05T08:31:32;94085.38;;;3.24;94.58
6425;BME280;12193;42.642;23.384;2023-04-05T08:34:04;94090.00;;;3.29;94.95
6425;BME280;12193;42.642;23.384;2023-04-05T08:36:35;94091.19;;;3.49;95.51
6425;BME280;12193;42.642;23.384;2023-04-05T08:39:04;94098.50;;;3.60;95.02
6425;BME280;12193;42.642;23.384;2023-04-05T08:41:35;94095.50;;;3.48;94.29
6425;BME280;12193;42.642;23.384;2023-04-05T08:44:08;94091.09;;;3.65;95.02
6425;BME280;12193;42.642;23.384;2023-04-05T08:46:38;94103.56;;;3.45;94.59
6425;BME280;12193;42.642;23.384;2023-04-05T08:49:10;94109.41;;;3.62;94.19
6425;BME280;12193;42.642;23.384;2023-04-05T08:51:40;94102.72;;;3.53;93.73
6425;BME280;12193;42.642;23.384;2023-04-05T08:54:10;94110.47;;;3.45;93.66
6425;BME280;12193;42.642;23.384;2023-04-05T08:56:41;94118.34;;;3.43;94.60
6425;BME280;12193;42.642;23.384;2023-04-05T08:59:12;94124.59;;;3.49;94.78
6425;BME280;12193;42.642;23.384;2023-04-05T09:01:44;94129.72;;;3.49;93.70
6425;BME280;12193;42.642;23.384;2023-04-05T09:04:19;94128.31;;;3.38;93.25
6425;BME280;12193;42.642;23.384;2023-04-05T09:06:50;94121.94;;;3.65;93.47
6425;BME280;12193;42.642;23.384;2023-04-05T09:09:20;94122.81;;;3.80;93.83
6425;BME280;12193;42.642;23.384;2023-04-05T09:11:50;94125.25;;;3.73;93.87
6425;BME280;12193;42.642;23.384;2023-04-05T09:14:21;94122.03;;;4.02;94.24
6425;BME280;12193;42.642;23.384;2023-04-05T09:16:50;94127.00;;;4.03;94.51
6425;BME280;12193;42.642;23.384;2023-04-05T09:19:22;94124.59;;;4.02;94.54
6425;BME280;12193;42.642;23.384;2023-04-05T09:21:59;94118.16;;;3.83;94.67
6425;BME280;12193;42.642;23.384;2023-04-05T09:24:32;94126.50;;;4.07;94.24
6425;BME280;12193;42.642;23.384;2023-04-05T09:27:06;94119.03;;;3.90;94.05
6425;BME280;12193;42.642;23.384;2023-04-05T09:29:37;94119.44;;;3.79;94.55
6425;BME280;12193;42.642;23.384;2023-04-05T09:32:07;94122.44;;;3.91;93.34
6425;BME280;12193;42.642;23.384;2023-04-05T09:34:41;94125.78;;;3.91;94.45
6425;BME280;12193;42.642;23.384;2023-04-05T09:37:12;94117.31;;;4.35;93.84
6425;BME280;12193;42.642;23.384;2023-04-05T09:39:43;94121.53;;;4.28;92.97
6425;BME280;12193;42.642;23.384;2023-04-05T09:42:13;94120.34;;;4.16;92.00
6425;BME280;12193;42.642;23.384;2023-04-05T09:44:53;94116.88;;;4.46;91.37
6425;BME280;12193;42.642;23.384;2023-04-05T09:47:28;94119.22;;;4.56;90.95
6425;BME280;12193;42.642;23.384;2023-04-05T09:50:16;94111.28;;;4.94;89.57
6425;BME280;12193;42.642;23.384;2023-04-05T09:52:45;94119.38;;;4.91;89.81
6425;BME280;12193;42.642;23.384;2023-04-05T09:55:25;94112.63;;;5.33;87.86
6425;BME280;12193;42.642;23.384;2023-04-05T09:57:55;94115.38;;;5.46;85.56
6425;BME280;12193;42.642;23.384;2023-04-05T10:00:25;94127.16;;;5.55;86.87
6425;BME280;12193;42.642;23.384;2023-04-05T10:02:55;94118.25;;;5.72;86.71
6425;BME280;12193;42.642;23.384;2023-04-05T10:05:28;94112.66;;;5.69;85.03
6425;BME280;12193;42.642;23.384;2023-04-05T10:07:58;94119.59;;;6.18;82.07
6425;BME280;12193;42.642;23.384;2023-04-05T10:10:30;94114.16;;;6.76;80.10
6425;BME280;12193;42.642;23.384;2023-04-05T10:12:59;94118.78;;;5.97;80.38
6425;BME280;12193;42.642;23.384;2023-04-05T10:15:30;94120.03;;;5.72;81.68
6425;BME280;12193;42.642;23.384;2023-04-05T10:18:03;94120.00;;;5.36;83.51
6425;BME280;12193;42.642;23.384;2023-04-05T10:20:43;94115.72;;;5.43;83.44
6425;BME280;12193;42.642;23.384;2023-04-05T10:23:18;94117.94;;;4.89;84.06
6425;BME280;12193;42.642;23.384;2023-04-05T10:25:58;94115.09;;;4.84;84.77
6425;BME280;12193;42.642;23.384;2023-04-05T10:28:30;94119.78;;;4.43;83.62
6425;BME280;12193;42.642;23.384;2023-04-05T10:31:09;94114.34;;;4.38;84.03
6425;BME280;12193;42.642;23.384;2023-04-05T10:33:42;94116.97;;;4.53;83.99
6425;BME280;12193;42.642;23.384;2023-04-05T10:36:21;94116.97;;;4.53;85.65
6425;BME280;12193;42.642;23.384;2023-04-05T10:39:00;94115.22;;;4.31;85.07
6425;BME280;12193;42.642;23.384;2023-04-05T10:41:33;94109.59;;;4.50;84.51
6425;BME280;12193;42.642;23.384;2023-04-05T10:44:04;94123.41;;;4.71;82.22
6425;BME280;12193;42.642;23.384;2023-04-05T10:46:39;94120.97;;;4.92;82.06
6425;BME280;12193;42.642;23.384;2023-04-05T10:49:21;94125.41;;;5.12;82.33
6425;BME280;12193;42.642;23.384;2023-04-05T10:51:53;94128.19;;;5.40;80.19
6425;BME280;12193;42.642;23.384;2023-04-05T10:54:23;94129.25;;;5.45;78.29
6425;BME280;12193;42.642;23.384;2023-04-05T10:56:54;94118.09;;;5.59;78.67
6425;BME280;12193;42.642;23.384;2023-04-05T10:59:24;94123.72;;;5.77;78.00
6425;BME280;12193;42.642;23.384;2023-04-05T11:01:55;94131.69;;;5.68;78.18
6425;BME280;12193;42.642;23.384;2023-04-05T11:04:24;94129.03;;;5.47;79.86
6425;BME280;12193;42.642;23.384;2023-04-05T11:07:12;94127.44;;;5.89;76.84
6425;BME280;12193;42.642;23.384;2023-04-05T11:09:54;94129.03;;;5.90;77.55
6425;BME280;12193;42.642;23.384;2023-04-05T11:15:29;94121.03;;;5.85;77.14
6425;BME280;12193;42.642;23.384;2023-04-05T11:18:07;94124.44;;;6.07;76.40
6425;BME280;12193;42.642;23.384;2023-04-05T11:20:41;94126.78;;;6.22;74.78
6425;BME280;12193;42.642;23.384;2023-04-05T11:23:14;94133.19;;;5.77;76.14
6425;BME280;12193;42.642;23.384;2023-04-05T11:25:50;94119.75;;;5.96;76.29
6425;BME280;12193;42.642;23.384;2023-04-05T11:28:24;94132.41;;;5.62;76.16
6425;BME280;12193;42.642;23.384;2023-04-05T11:30:54;94135.56;;;6.07;76.24
6425;BME280;12193;42.642;23.384;2023-04-05T11:33:38;94122.00;;;5.55;76.43
6425;BME280;12193;42.642;23.384;2023-04-05T11:36:07;94120.38;;;5.98;76.97
6425;BME280;12193;42.642;23.384;2023-04-05T11:38:42;94124.03;;;5.89;75.66
6425;BME280;12193;42.642;23.384;2023-04-05T11:41:13;94124.44;;;6.07;75.37
6425;BME280;12193;42.642;23.384;2023-04-05T11:43:43;94134.66;;;6.15;74.50
6425;BME280;12193;42.642;23.384;2023-04-05T11:46:13;94132.31;;;5.70;77.15
6425;BME280;12193;42.642;23.384;2023-04-05T11:48:48;94122.56;;;5.80;77.07
6425;BME280;12193;42.642;23.384;2023-04-05T11:51:19;94124.84;;;5.75;76.89
6425;BME280;12193;42.642;23.384;2023-04-05T11:53:57;94116.78;;;5.49;77.46
6425;BME280;12193;42.642;23.384;2023-04-05T11:56:26;94126.75;;;5.52;78.35
6425;BME280;12193;42.642;23.384;2023-04-05T11:58:57;94125.06;;;5.44;77.34
6425;BME280;12193;42.642;23.384;2023-04-05T12:01:27;94123.94;;;5.18;78.66
6425;BME280;12193;42.642;23.384;2023-04-05T12:03:56;94127.91;;;5.49;78.71
6425;BME280;12193;42.642;23.384;2023-04-05T12:06:26;94124.84;;;5.75;78.41
6425;BME280;12193;42.642;23.384;2023-04-05T12:08:58;94130.09;;;5.81;75.90
6425;BME280;12193;42.642;23.384;2023-04-05T12:11:28;94135.69;;;5.85;75.35
6425;BME280;12193;42.642;23.384;2023-04-05T12:13:59;94121.16;;;5.98;77.43
6425;BME280;12193;42.642;23.384;2023-04-05T12:16:29;94127.84;;;6.28;75.81
6425;BME280;12193;42.642;23.384;2023-04-05T12:18:59;94129.13;;;6.18;75.06
6425;BME280;12193;42.642;23.384;2023-04-05T12:21:28;94133.41;;;6.31;75.41
6425;BME280;12193;42.642;23.384;2023-04-05T12:24:00;94133.16;;;6.68;75.40
6425;BME280;12193;42.642;23.384;2023-04-05T12:26:30;94131.59;;;6.74;74.09
6425;BME280;12193;42.642;23.384;2023-04-05T12:29:02;94121.09;;;6.48;75.29
6425;BME280;12193;42.642;23.384;2023-04-05T12:31:36;94116.38;;;6.16;74.73
6425;BME280;12193;42.642;23.384;2023-04-05T12:34:07;94116.03;;;6.19;77.47
6425;BME280;12193;42.642;23.384;2023-04-05T12:36:37;94120.25;;;6.26;75.70
6425;BME280;12193;42.642;23.384;2023-04-05T12:39:09;94117.00;;;6.39;75.50
6425;BME280;12193;42.642;23.384;2023-04-05T12:41:38;94133.72;;;6.43;77.78
6425;BME280;12193;42.642;23.384;2023-04-05T12:44:13;94130.28;;;5.80;77.89
6425;BME280;12193;42.642;23.384;2023-04-05T12:46:44;94129.06;;;6.11;79.34
6425;BME280;12193;42.642;23.384;2023-04-05T12:49:15;94133.22;;;6.54;77.18
6425;BME280;12193;42.642;23.384;2023-04-05T12:51:46;94134.91;;;6.61;76.69
6425;BME280;12193;42.642;23.384;2023-04-05T12:54:23;94130.41;;;6.07;77.20
6425;BME280;12193;42.642;23.384;2023-04-05T12:56:52;94132.28;;;5.99;78.22
6425;BME280;12193;42.642;23.384;2023-04-05T12:59:23;94134.03;;;5.48;79.06
6425;BME280;12193;42.642;23.384;2023-04-05T13:01:52;94140.31;;;5.60;79.75
6425;BME280;12193;42.642;23.384;2023-04-05T13:04:21;94131.34;;;5.56;79.67
6425;BME280;12193;42.642;23.384;2023-04-05T13:06:51;94133.22;;;5.33;79.21
6425;BME280;12193;42.642;23.384;2023-04-05T13:09:23;94131.38;;;5.27;79.30
6425;BME280;12193;42.642;23.384;2023-04-05T13:11:52;94140.75;;;4.92;81.65
6425;BME280;12193;42.642;23.384;2023-04-05T13:14:23;94138.38;;;4.90;83.47
6425;BME280;12193;42.642;23.384;2023-04-05T13:16:52;94146.88;;;4.91;82.35
6425;BME280;12193;42.642;23.384;2023-04-05T13:19:21;94142.63;;;4.98;81.61
6425;BME280;12193;42.642;23.384;2023-04-05T13:21:51;94140.19;;;5.47;80.61
6425;BME280;12193;42.642;23.384;2023-04-05T13:24:22;94124.25;;;5.58;79.67
6425;BME280;12193;42.642;23.384;2023-04-05T13:26:52;94139.19;;;5.34;79.23
6425;BME280;12193;42.642;23.384;2023-04-05T13:29:22;94135.63;;;5.20;78.27
6425;BME280;12193;42.642;23.384;2023-04-05T13:31:51;94121.38;;;4.81;79.93
6425;BME280;12193;42.642;23.384;2023-04-05T13:34:20;94130.56;;;4.61;80.24
6425;BME280;12193;42.642;23.384;2023-04-05T13:36:50;94127.63;;;4.27;81.08
6425;BME280;12193;42.642;23.384;2023-04-05T13:39:19;94127.41;;;4.37;82.97
6425;BME280;12193;42.642;23.384;2023-04-05T13:41:51;94124.69;;;4.53;82.33
6425;BME280;12193;42.642;23.384;2023-04-05T13:44:21;94135.97;;;4.52;81.47
6425;BME280;12193;42.642;23.384;2023-04-05T13:46:50;94141.56;;;4.33;81.68
6425;BME280;12193;42.642;23.384;2023-04-05T13:49:19;94128.59;;;4.26;83.07
6425;BME280;12193;42.642;23.384;2023-04-05T13:51:48;94129.34;;;4.57;82.73
6425;BME280;12193;42.642;23.384;2023-04-05T13:54:18;94130.56;;;4.98;80.67
6425;BME280;12193;42.642;23.384;2023-04-05T13:56:50;94130.91;;;4.95;80.30
6425;BME280;12193;42.642;23.384;2023-04-05T13:59:19;94129.22;;;5.16;81.23
6425;BME280;12193;42.642;23.384;2023-04-05T14:01:49;94127.56;;;5.23;80.65
6425;BME280;12193;42.642;23.384;2023-04-05T14:04:18;94135.09;;;4.96;80.88
6425;BME280;12193;42.642;23.384;2023-04-05T14:06:47;94135.47;;;4.71;80.37
6425;BME280;12193;42.642;23.384;2023-04-05T14:09:16;94135.97;;;4.89;81.91
6425;BME280;12193;42.642;23.384;2023-04-05T14:11:46;94139.63;;;5.09;81.18
6425;BME280;12193;42.642;23.384;2023-04-05T14:14:18;94145.25;;;5.26;81.97
6425;BME280;12193;42.642;23.384;2023-04-05T14:16:48;94141.31;;;5.30;81.62
6425;BME280;12193;42.642;23.384;2023-04-05T14:19:17;94136.47;;;4.84;81.29
6425;BME280;12193;42.642;23.384;2023-04-05T14:21:47;94137.56;;;5.04;82.05
6425;BME280;12193;42.642;23.384;2023-04-05T14:24:16;94142.81;;;5.10;81.52
6425;BME280;12193;42.642;23.384;2023-04-05T14:26:46;94144.94;;;4.78;81.03
6425;BME280;12193;42.642;23.384;2023-04-05T14:29:19;94141.91;;;4.52;83.00
6425;BME280;12193;42.642;23.384;2023-04-05T14:31:48;94144.78;;;4.72;82.50
6425;BME280;12193;42.642;23.384;2023-04-05T14:34:18;94146.09;;;4.90;83.17
6425;BME280;12193;42.642;23.384;2023-04-05T14:36:47;94145.28;;;4.90;83.00
6425;BME280;12193;42.642;23.384;2023-04-05T14:39:16;94146.88;;;4.76;81.38
6425;BME280;12193;42.642;23.384;2023-04-05T14:41:45;94155.19;;;4.41;82.87
6425;BME280;12193;42.642;23.384;2023-04-05T14:44:21;94152.25;;;4.00;85.15
6425;BME280;12193;42.642;23.384;2023-04-05T14:46:52;94157.16;;;3.87;86.00
6425;BME280;12193;42.642;23.384;2023-04-05T14:49:21;94158.84;;;3.72;87.82
6425;BME280;12193;42.642;23.384;2023-04-05T14:51:51;94172.47;;;3.34;89.87
6425;BME280;12193;42.642;23.384;2023-04-05T14:54:20;94175.91;;;3.57;87.76
6425;BME280;12193;42.642;23.384;2023-04-05T14:56:50;94175.69;;;3.36;90.01
6425;BME280;12193;42.642;23.384;2023-04-05T14:59:22;94179.09;;;3.67;89.21
6425;BME280;12193;42.642;23.384;2023-04-05T15:01:52;94179.13;;;3.59;88.74
6425;BME280;12193;42.642;23.384;2023-04-05T15:04:21;94177.16;;;3.69;88.44
6425;BME280;12193;42.642;23.384;2023-04-05T15:06:51;94178.91;;;3.68;88.58
6425;BME280;12193;42.642;23.384;2023-04-05T15:09:20;94182.50;;;3.59;88.48
6425;BME280;12193;42.642;23.384;2023-04-05T15:11:50;94181.22;;;3.55;89.18
6425;BME280;12193;42.642;23.384;2023-04-05T15:14:23;94178.66;;;3.47;89.17
6425;BME280;12193;42.642;23.384;2023-04-05T15:16:53;94187.56;;;3.29;89.36
6425;BME280;12193;42.642;23.384;2023-04-05T15:19:22;94191.22;;;3.42;89.55
6425;BME280;12193;42.642;23.384;2023-04-05T15:21:52;94190.91;;;3.37;90.38
6425;BME280;12193;42.642;23.384;2023-04-05T15:24:21;94189.31;;;3.44;91.13
6425;BME280;12193;42.642;23.384;2023-04-05T15:26:51;94186.25;;;3.41;90.57
6425;BME280;12193;42.642;23.384;2023-04-05T15:29:30;94190.75;;;3.39;90.88
6425;BME280;12193;42.642;23.384;2023-04-05T15:32:00;94198.56;;;3.53;91.86
6425;BME280;12193;42.642;23.384;2023-04-05T15:34:31;94194.28;;;3.38;91.35
6425;BME280;12193;42.642;23.384;2023-04-05T15:37:00;94193.38;;;3.23;91.48
6425;BME280;12193;42.642;23.384;2023-04-05T15:39:29;94196.09;;;3.13;92.22
6425;BME280;12193;42.642;23.384;2023-04-05T15:42:01;94196.47;;;2.87;94.39
6425;BME280;12193;42.642;23.384;2023-04-05T15:44:34;94199.16;;;3.17;95.39
6425;BME280;12193;42.642;23.384;2023-04-05T15:47:03;94202.16;;;3.36;99.04
6425;BME280;12193;42.642;23.384;2023-04-05T15:49:33;94193.38;;;3.23;96.05
6425;BME280;12193;42.642;23.384;2023-04-05T15:52:02;94197.03;;;3.36;96.26
6425;BME280;12193;42.642;23.384;2023-04-05T15:54:32;94201.09;;;3.07;95.72
6425;BME280;12193;42.642;23.384;2023-04-05T15:57:01;94193.88;;;3.10;95.25
6425;BME280;12193;42.642;23.384;2023-04-05T15:59:34;94200.63;;;2.88;95.88
6425;BME280;12193;42.642;23.384;2023-04-05T16:02:03;94206.69;;;3.10;95.97
6425;BME280;12193;42.642;23.384;2023-04-05T16:04:33;94203.81;;;3.21;94.74
6425;BME280;12193;42.642;23.384;2023-04-05T16:07:04;94205.91;;;3.10;95.25
6425;BME280;12193;42.642;23.384;2023-04-05T16:09:35;94208.34;;;2.96;95.28
6425;BME280;12193;42.642;23.384;2023-04-05T16:12:05;94206.22;;;3.15;95.85
6425;BME280;12193;42.642;23.384;2023-04-05T16:14:37;94201.28;;;2.66;95.55
6425;BME280;12193;42.642;23.384;2023-04-05T16:17:06;94201.94;;;2.60;96.51
6425;BME280;12193;42.642;23.384;2023-04-05T16:19:36;94202.88;;;2.67;97.78
6425;BME280;12193;42.642;23.384;2023-04-05T16:22:06;94204.50;;;2.60;98.48
6425;BME280;12193;42.642;23.384;2023-04-05T16:24:35;94205.31;;;2.52;98.93
6425;BME280;12193;42.642;23.384;2023-04-05T16:27:05;94199.03;;;2.47;99.76
6425;BME280;12193;42.642;23.384;2023-04-05T16:29:37;94197.47;;;2.62;99.61
6425;BME280;12193;42.642;23.384;2023-04-05T16:32:07;94198.09;;;2.56;99.05